Time;durP1;ratioP1;P1;durP2;ratioP2;P2;SDS_P1;SDS_P2;PMS_P1;PMS_P2;Temp;Humidity;BMP_temperature;BMP_pressure;BME280_temperature;BME280_humidity;BME280_pressure;Samples;Min_cycle;Max_cycle;Signal;HPM_P1;HPM_P2
2021/07/06 00:00:29;;;;;;;5.20;3.72;;;18.40;85.60;;;;;;2072366;28;20459;-83
2021/07/06 00:01:30;;;;;;;4.80;3.55;;;18.40;84.90;;;;;;2081105;28;20522;-83
2021/07/06 00:02:30;;;;;;;5.20;3.60;;;18.40;84.90;;;;;;2079152;28;20025;-82
2021/07/06 00:03:31;;;;;;;5.65;3.35;;;18.40;85.00;;;;;;2078508;28;20065;-83
2021/07/06 00:04:32;;;;;;;6.18;3.20;;;18.40;85.00;;;;;;2078949;28;20480;-82
2021/07/06 00:05:33;;;;;;;4.97;3.50;;;18.40;85.00;;;;;;2064918;28;20026;-82
2021/07/06 00:06:33;;;;;;;4.32;3.22;;;18.40;85.00;;;;;;2059960;28;20026;-82
2021/07/06 00:07:34;;;;;;;4.63;3.08;;;18.40;85.00;;;;;;2071057;28;20499;-82
2021/07/06 00:08:35;;;;;;;5.03;3.47;;;18.40;85.10;;;;;;2081081;28;20458;-83
2021/07/06 00:09:35;;;;;;;4.68;3.17;;;18.40;85.00;;;;;;2072647;28;20030;-82
2021/07/06 00:10:36;;;;;;;4.82;3.40;;;18.40;85.10;;;;;;2064821;28;20428;-82
2021/07/06 00:11:38;;;;;;;4.50;3.08;;;18.40;85.10;;;;;;2067994;28;20436;-82
2021/07/06 00:12:38;;;;;;;5.03;3.13;;;18.40;85.10;;;;;;2078297;28;20028;-82
2021/07/06 00:13:39;;;;;;;5.18;3.20;;;18.40;85.10;;;;;;2070405;28;20033;-82
2021/07/06 00:14:40;;;;;;;5.43;3.17;;;18.40;85.10;;;;;;2071812;28;20037;-83
2021/07/06 00:15:41;;;;;;;4.25;3.00;;;18.40;85.20;;;;;;2065153;28;20076;-83
2021/07/06 00:16:41;;;;;;;3.80;2.65;;;18.40;85.20;;;;;;2064198;28;20027;-84
2021/07/06 00:17:42;;;;;;;4.50;2.92;;;18.40;85.20;;;;;;2072732;28;20064;-83
2021/07/06 00:18:43;;;;;;;4.22;2.75;;;18.40;85.30;;;;;;2073124;28;20084;-83
2021/07/06 00:19:44;;;;;;;3.90;2.55;;;18.40;85.30;;;;;;2072780;28;20018;-83
2021/07/06 00:20:45;;;;;;;3.72;2.65;;;18.40;85.40;;;;;;2072678;28;20034;-83
2021/07/06 00:21:45;;;;;;;4.10;2.60;;;18.40;85.40;;;;;;2075625;28;20120;-82
2021/07/06 00:22:46;;;;;;;4.32;2.60;;;18.40;85.50;;;;;;2073187;28;20563;-82
2021/07/06 00:23:47;;;;;;;3.83;2.72;;;18.40;85.60;;;;;;2056646;28;20466;-83
2021/07/06 00:24:48;;;;;;;3.47;2.38;;;18.40;86.20;;;;;;2068389;28;20034;-83
2021/07/06 00:25:49;;;;;;;3.13;2.30;;;18.40;85.60;;;;;;2066795;28;20540;-82
2021/07/06 00:26:49;;;;;;;4.70;2.80;;;18.40;85.70;;;;;;2073216;28;20022;-84
2021/07/06 00:27:51;;;;;;;3.00;2.30;;;18.40;85.70;;;;;;2073875;28;20116;-83
2021/07/06 00:28:51;;;;;;;4.00;2.45;;;18.40;85.80;;;;;;2063799;28;20037;-83
2021/07/06 00:29:52;;;;;;;3.60;2.15;;;18.40;85.90;;;;;;2080139;28;20049;-83
2021/07/06 00:30:54;;;;;;;3.22;1.95;;;18.50;86.00;;;;;;2080643;28;20175;-83
2021/07/06 00:31:55;;;;;;;2.85;2.00;;;18.40;85.90;;;;;;2065457;28;20026;-83
2021/07/06 00:32:57;;;;;;;3.15;2.05;;;18.40;86.00;;;;;;2078229;28;20029;-82
2021/07/06 00:33:58;;;;;;;3.45;2.30;;;18.40;86.00;;;;;;2072221;28;20030;-83
2021/07/06 00:34:58;;;;;;;3.08;1.85;;;18.40;86.00;;;;;;2074834;28;20022;-83
2021/07/06 00:36:01;;;;;;;2.80;1.80;;;18.50;86.10;;;;;;2066391;28;20042;-82
2021/07/06 00:37:02;;;;;;;2.65;1.90;;;18.40;86.10;;;;;;2072681;28;20022;-83
2021/07/06 00:38:03;;;;;;;4.03;1.70;;;18.40;86.10;;;;;;2080355;28;20030;-83
2021/07/06 00:39:05;;;;;;;2.97;1.88;;;18.50;86.40;;;;;;2073556;28;20029;-83
2021/07/06 00:40:07;;;;;;;2.53;1.65;;;18.50;86.20;;;;;;2066192;28;20031;-83
2021/07/06 00:41:07;;;;;;;2.80;1.88;;;18.50;86.20;;;;;;2058490;28;20568;-82
2021/07/06 00:42:09;;;;;;;2.17;1.48;;;18.50;86.20;;;;;;2065749;28;20064;-83
2021/07/06 00:43:10;;;;;;;1.67;1.30;;;18.50;86.10;;;;;;2058370;28;20056;-83
2021/07/06 00:44:18;;;;;;;2.13;1.45;;;18.50;86.10;;;;;;2066113;28;20022;-83
2021/07/06 00:45:21;;;;;;;1.98;1.27;;;18.50;86.10;;;;;;2075419;28;20539;-83
2021/07/06 00:46:21;;;;;;;2.05;1.48;;;18.50;86.00;;;;;;2084148;28;20033;-83
2021/07/06 00:47:37;;;;;;;1.80;1.30;;;18.50;86.00;;;;;;2081772;28;20064;-83
2021/07/06 00:48:38;;;;;;;1.60;1.25;;;18.60;86.00;;;;;;2075666;28;20117;-83
2021/07/06 00:49:38;;;;;;;2.33;1.30;;;18.50;86.00;;;;;;2073821;28;20052;-83
2021/07/06 00:50:39;;;;;;;1.92;1.33;;;18.60;86.00;;;;;;2083631;28;20037;-83
2021/07/06 00:51:40;;;;;;;1.73;1.00;;;18.60;86.00;;;;;;2080782;28;20026;-83
2021/07/06 00:52:41;;;;;;;2.70;1.08;;;18.60;86.00;;;;;;2063442;28;20774;-83
2021/07/06 00:53:41;;;;;;;2.75;1.23;;;18.60;85.90;;;;;;2076078;28;20026;-83
2021/07/06 00:54:42;;;;;;;2.25;1.10;;;18.60;86.00;;;;;;2081186;28;20033;-83
2021/07/06 00:55:44;;;;;;;1.45;1.00;;;18.60;85.90;;;;;;2077873;28;20029;-82
2021/07/06 00:56:44;;;;;;;2.17;1.02;;;18.60;85.90;;;;;;2082594;28;20128;-82
2021/07/06 00:57:46;;;;;;;1.88;1.08;;;18.60;85.90;;;;;;2086488;28;20407;-82
2021/07/06 00:58:48;;;;;;;1.52;0.90;;;18.60;86.50;;;;;;2074263;28;20061;-83
2021/07/06 00:59:48;;;;;;;1.40;1.00;;;18.70;85.90;;;;;;2072215;28;20480;-82
2021/07/06 01:00:49;;;;;;;1.00;0.90;;;18.60;85.90;;;;;;2068723;28;20121;-83
2021/07/06 01:01:50;;;;;;;1.20;0.80;;;18.70;85.90;;;;;;2080352;28;20021;-82
2021/07/06 01:02:52;;;;;;;1.30;0.93;;;18.70;85.90;;;;;;2077645;28;20550;-83
2021/07/06 01:03:53;;;;;;;2.30;1.20;;;18.70;86.00;;;;;;2081451;28;20497;-82
2021/07/06 01:04:54;;;;;;;1.35;0.88;;;18.70;86.00;;;;;;2082192;28;20030;-83
2021/07/06 01:05:54;;;;;;;1.10;0.80;;;18.70;86.00;;;;;;2082765;28;20021;-83
2021/07/06 01:06:55;;;;;;;1.10;0.88;;;18.70;86.00;;;;;;2058081;28;20536;-83
2021/07/06 01:07:56;;;;;;;0.90;0.80;;;18.60;86.00;;;;;;2065887;28;20393;-83
2021/07/06 01:08:56;;;;;;;1.35;1.00;;;18.70;86.10;;;;;;2074362;28;20080;-83
2021/07/06 01:09:57;;;;;;;1.30;1.00;;;18.70;86.20;;;;;;2065852;28;20500;-83
2021/07/06 01:10:59;;;;;;;1.17;0.70;;;18.70;86.20;;;;;;2064752;28;20049;-83
2021/07/06 01:12:00;;;;;;;1.65;0.90;;;18.60;86.20;;;;;;2074365;28;20508;-82
2021/07/06 01:13:02;;;;;;;1.30;0.90;;;18.60;86.20;;;;;;2073869;28;20042;-83
2021/07/06 01:14:04;;;;;;;1.38;0.90;;;18.60;86.20;;;;;;2074976;28;20499;-83
2021/07/06 01:15:08;;;;;;;1.58;0.80;;;18.60;86.20;;;;;;2078113;28;20080;-83
2021/07/06 01:16:09;;;;;;;0.73;0.73;;;18.70;86.30;;;;;;2080509;28;20602;-82
2021/07/06 01:17:10;;;;;;;1.05;0.70;;;18.60;86.20;;;;;;2073759;28;20108;-82
2021/07/06 01:18:15;;;;;;;1.23;0.70;;;18.70;86.30;;;;;;2073849;28;20076;-83
2021/07/06 01:19:16;;;;;;;1.02;0.90;;;18.60;86.20;;;;;;2074223;28;20026;-83
2021/07/06 01:20:21;;;;;;;1.83;0.88;;;18.70;86.30;;;;;;2074140;28;20022;-83
2021/07/06 01:21:21;;;;;;;1.40;0.80;;;18.70;86.30;;;;;;2065837;28;20030;-82
2021/07/06 01:22:32;;;;;;;0.85;0.75;;;18.70;86.90;;;;;;2066547;28;20057;-82
2021/07/06 01:23:34;;;;;;;2.33;0.90;;;18.70;86.20;;;;;;2072148;28;20041;-82
2021/07/06 01:24:38;;;;;;;0.90;0.70;;;18.60;86.80;;;;;;2074383;28;20041;-82
2021/07/06 01:25:40;;;;;;;1.13;0.80;;;18.70;86.20;;;;;;2077394;28;20047;-82
2021/07/06 01:26:41;;;;;;;0.88;0.70;;;18.70;86.30;;;;;;2070532;28;20029;-82
2021/07/06 01:27:43;;;;;;;1.35;0.80;;;18.70;86.30;;;;;;2074171;28;20487;-82
2021/07/06 01:28:43;;;;;;;1.38;0.70;;;18.70;86.20;;;;;;2075745;28;20030;-82
2021/07/06 01:29:44;;;;;;;1.30;0.80;;;18.60;86.20;;;;;;2066913;28;20583;-82
2021/07/06 01:30:45;;;;;;;1.00;0.60;;;18.60;86.20;;;;;;2074638;28;20042;-82
2021/07/06 01:31:49;;;;;;;1.30;0.77;;;18.70;86.30;;;;;;2078350;28;20120;-82
2021/07/06 01:32:50;;;;;;;1.35;0.63;;;18.60;86.30;;;;;;2081192;28;20037;-82
2021/07/06 01:33:55;;;;;;;1.15;0.75;;;18.70;86.30;;;;;;2069791;28;20029;-82
2021/07/06 01:34:56;;;;;;;1.15;0.75;;;18.70;86.30;;;;;;2070298;28;20031;-82
2021/07/06 01:36:03;;;;;;;1.02;0.80;;;18.70;86.40;;;;;;2090625;28;20114;-83
2021/07/06 01:37:03;;;;;;;1.55;0.98;;;18.70;86.30;;;;;;2090419;28;20021;-83
2021/07/06 01:38:05;;;;;;;1.38;0.70;;;18.70;86.30;;;;;;2090386;28;20124;-82
2021/07/06 01:39:06;;;;;;;1.27;0.85;;;18.70;86.40;;;;;;2074319;28;20022;-82
2021/07/06 01:40:07;;;;;;;1.13;0.60;;;18.70;86.40;;;;;;2076305;28;20543;-82
2021/07/06 01:41:08;;;;;;;1.30;0.73;;;18.70;86.30;;;;;;2082162;28;20022;-81
2021/07/06 01:42:09;;;;;;;1.15;0.75;;;18.70;86.40;;;;;;2082188;28;20025;-82
2021/07/06 01:43:10;;;;;;;1.17;0.70;;;18.70;86.50;;;;;;2073472;28;20090;-82
2021/07/06 01:44:24;;;;;;;1.58;0.63;;;18.70;86.40;;;;;;2073888;28;20037;-82
2021/07/06 01:45:27;;;;;;;1.60;0.80;;;18.70;86.50;;;;;;2073717;28;20033;-82
2021/07/06 01:46:28;;;;;;;1.85;0.77;;;18.70;86.50;;;;;;2074704;28;20037;-82
2021/07/06 01:47:29;;;;;;;1.38;0.77;;;18.70;86.60;;;;;;2066019;28;20082;-83
2021/07/06 01:48:30;;;;;;;1.20;0.70;;;18.60;86.50;;;;;;2066171;28;20030;-83
2021/07/06 01:49:33;;;;;;;0.80;0.60;;;18.60;86.60;;;;;;2072558;28;20045;-83
2021/07/06 01:50:40;;;;;;;1.10;0.75;;;18.60;86.60;;;;;;2080705;28;20042;-82
2021/07/06 01:51:42;;;;;;;1.00;0.75;;;18.60;86.60;;;;;;2083775;28;20045;-83
2021/07/06 01:52:49;;;;;;;2.05;0.80;;;18.60;86.60;;;;;;2081797;28;20450;-82
2021/07/06 01:53:49;;;;;;;1.30;0.77;;;18.60;86.70;;;;;;2078873;28;20479;-81
2021/07/06 01:54:51;;;;;;;1.25;0.80;;;18.60;86.70;;;;;;2078917;28;20030;-83
2021/07/06 01:55:53;;;;;;;1.05;0.80;;;18.60;86.80;;;;;;2072844;28;20109;-83
2021/07/06 01:56:54;;;;;;;1.80;0.80;;;18.60;87.40;;;;;;2069698;28;20504;-83
2021/07/06 01:57:56;;;;;;;1.20;0.80;;;18.60;86.80;;;;;;2073924;28;20101;-82
2021/07/06 01:58:57;;;;;;;1.10;0.68;;;18.60;86.90;;;;;;2076450;28;20507;-82
2021/07/06 01:59:58;;;;;;;1.08;0.70;;;18.60;86.90;;;;;;2076060;28;20124;-82
2021/07/06 02:01:00;;;;;;;0.75;0.70;;;18.60;86.90;;;;;;2068625;28;20030;-83
2021/07/06 02:02:01;;;;;;;0.73;0.60;;;18.50;86.90;;;;;;2070219;28;20072;-83
2021/07/06 02:03:04;;;;;;;1.00;0.60;;;18.60;86.90;;;;;;2074124;28;20459;-83
2021/07/06 02:04:06;;;;;;;1.08;0.70;;;18.60;86.90;;;;;;2073332;28;20025;-83
2021/07/06 02:05:26;;;;;;;1.05;0.70;;;18.60;86.90;;;;;;2080483;28;20026;-83
2021/07/06 02:06:26;;;;;;;0.55;0.50;;;18.60;86.80;;;;;;2080793;28;20049;-82
2021/07/06 02:07:27;;;;;;;1.02;0.68;;;18.60;86.80;;;;;;2082432;28;20468;-82
2021/07/06 02:08:28;;;;;;;1.13;0.50;;;18.60;86.80;;;;;;2073871;28;20064;-83
2021/07/06 02:09:28;;;;;;;0.80;0.55;;;18.60;86.90;;;;;;2066690;28;20035;-83
2021/07/06 02:10:30;;;;;;;0.68;0.50;;;18.60;86.90;;;;;;2067125;28;20026;-83
2021/07/06 02:11:30;;;;;;;0.40;0.40;;;18.50;86.80;;;;;;2080583;28;20029;-83
2021/07/06 02:12:32;;;;;;;0.70;0.50;;;18.50;86.80;;;;;;2090027;28;20102;-82
2021/07/06 02:13:32;;;;;;;0.70;0.50;;;18.50;86.90;;;;;;2086937;28;20036;-82
2021/07/06 02:14:33;;;;;;;0.60;0.40;;;18.50;86.90;;;;;;2073093;28;20121;-83
2021/07/06 02:15:34;;;;;;;0.45;0.40;;;18.60;87.00;;;;;;2073735;28;20076;-82
2021/07/06 02:16:36;;;;;;;1.05;0.50;;;18.60;87.00;;;;;;2064983;28;20018;-82
2021/07/06 02:17:38;;;;;;;1.27;0.50;;;18.50;87.00;;;;;;2065711;28;20041;-82
2021/07/06 02:18:39;;;;;;;0.50;0.40;;;18.60;87.00;;;;;;2073371;28;20365;-82
2021/07/06 02:19:40;;;;;;;0.40;0.38;;;18.50;87.00;;;;;;2065739;28;20032;-82
2021/07/06 02:20:41;;;;;;;0.85;0.50;;;18.50;87.00;;;;;;2057381;28;20031;-81
2021/07/06 02:21:41;;;;;;;0.60;0.32;;;18.50;87.00;;;;;;2060385;28;20046;-82
2021/07/06 02:22:43;;;;;;;0.50;0.40;;;18.50;87.10;;;;;;2076398;28;20068;-82
2021/07/06 02:23:46;;;;;;;0.43;0.40;;;18.50;87.10;;;;;;2070212;28;20058;-82
2021/07/06 02:24:47;;;;;;;0.60;0.40;;;18.50;87.10;;;;;;2065918;28;20084;-82
2021/07/06 02:25:48;;;;;;;0.30;0.30;;;18.50;87.10;;;;;;2061198;28;20488;-82
2021/07/06 02:26:48;;;;;;;0.57;0.50;;;18.50;87.10;;;;;;2078411;28;20025;-82
2021/07/06 02:27:50;;;;;;;1.45;0.32;;;18.50;87.20;;;;;;2073615;28;20057;-83
2021/07/06 02:28:50;;;;;;;1.15;0.40;;;18.50;87.20;;;;;;2065390;28;20045;-82
2021/07/06 02:29:51;;;;;;;1.15;0.50;;;18.50;87.30;;;;;;2086059;28;20432;-82
2021/07/06 02:30:52;;;;;;;0.80;0.40;;;18.50;87.30;;;;;;2066514;28;20038;-83
2021/07/06 02:31:52;;;;;;;0.40;0.40;;;18.40;87.40;;;;;;2047322;28;20398;-83
2021/07/06 02:32:53;;;;;;;0.52;0.45;;;18.40;87.40;;;;;;2065623;28;20065;-83
2021/07/06 02:33:54;;;;;;;0.50;0.40;;;18.40;88.00;;;;;;2062722;28;20492;-82
2021/07/06 02:34:54;;;;;;;0.70;0.50;;;18.40;87.50;;;;;;2056714;28;20027;-83
2021/07/06 02:35:55;;;;;;;0.95;0.55;;;18.40;87.60;;;;;;2061220;28;20460;-82
2021/07/06 02:36:56;;;;;;;0.82;0.50;;;18.40;87.60;;;;;;2064543;28;20397;-82
2021/07/06 02:37:58;;;;;;;0.45;0.40;;;18.30;87.60;;;;;;2064530;28;20033;-83
2021/07/06 02:38:58;;;;;;;0.40;0.40;;;18.30;87.70;;;;;;2065059;28;20026;-82
2021/07/06 02:39:59;;;;;;;0.55;0.47;;;18.30;87.70;;;;;;2073604;28;20028;-82
2021/07/06 02:41:01;;;;;;;0.40;0.40;;;18.30;87.80;;;;;;2080796;28;20049;-82
2021/07/06 02:42:01;;;;;;;0.68;0.50;;;18.30;87.90;;;;;;2089800;28;20017;-83
2021/07/06 02:43:03;;;;;;;1.30;0.60;;;18.30;87.90;;;;;;2064692;28;20076;-82
2021/07/06 02:44:04;;;;;;;0.70;0.50;;;18.30;87.90;;;;;;2057516;28;20027;-82
2021/07/06 02:45:07;;;;;;;1.02;0.60;;;18.30;87.90;;;;;;2049808;28;20480;-82
2021/07/06 02:46:08;;;;;;;1.02;0.80;;;18.20;88.30;;;;;;2065447;28;20123;-82
2021/07/06 02:47:09;;;;;;;0.93;0.60;;;18.20;88.00;;;;;;2082055;28;20097;-82
2021/07/06 02:48:10;;;;;;;0.63;0.50;;;18.20;88.00;;;;;;2072348;28;20068;-82
2021/07/06 02:49:11;;;;;;;0.77;0.63;;;18.20;88.10;;;;;;2080245;28;20541;-82
2021/07/06 02:50:12;;;;;;;1.35;0.60;;;18.30;88.10;;;;;;2088201;28;20112;-82
2021/07/06 02:51:16;;;;;;;0.90;0.65;;;18.20;88.10;;;;;;2071129;28;20054;-83
2021/07/06 02:52:17;;;;;;;1.17;0.80;;;18.20;88.10;;;;;;2052781;28;20023;-82
2021/07/06 02:53:18;;;;;;;1.60;0.70;;;18.20;88.20;;;;;;2055584;28;20521;-82
2021/07/06 02:54:19;;;;;;;0.60;0.50;;;18.20;88.20;;;;;;2042855;28;20024;-82
2021/07/06 02:55:20;;;;;;;0.98;0.60;;;18.20;88.20;;;;;;2048371;28;20027;-82
2021/07/06 02:56:21;;;;;;;1.33;0.70;;;18.20;88.30;;;;;;2058454;28;20081;-82
2021/07/06 02:57:35;;;;;;;1.33;0.70;;;18.20;88.30;;;;;;2073358;28;20033;-83
2021/07/06 02:58:36;;;;;;;1.65;0.60;;;18.10;88.30;;;;;;2077224;28;20076;-83
2021/07/06 02:59:39;;;;;;;1.50;0.70;;;18.10;88.30;;;;;;2074986;28;20057;-83
2021/07/06 03:00:39;;;;;;;1.10;0.50;;;18.10;88.40;;;;;;2070477;28;20168;-83
2021/07/06 03:01:40;;;;;;;1.65;0.60;;;18.10;88.40;;;;;;2073640;28;20034;-83
2021/07/06 03:02:45;;;;;;;1.10;0.60;;;18.10;88.50;;;;;;2083004;28;20033;-81
2021/07/06 03:03:46;;;;;;;0.95;0.70;;;18.10;88.50;;;;;;2080188;28;20058;-81
2021/07/06 03:04:46;;;;;;;0.80;0.68;;;18.10;88.60;;;;;;2076996;28;20049;-82
2021/07/06 03:05:47;;;;;;;1.40;0.65;;;18.10;88.60;;;;;;2063878;28;20022;-82
2021/07/06 03:06:48;;;;;;;0.70;0.60;;;18.10;88.60;;;;;;2070067;28;20167;-82
2021/07/06 03:07:49;;;;;;;0.77;0.45;;;18.10;88.70;;;;;;2070087;28;20055;-82
2021/07/06 03:08:52;;;;;;;0.82;0.50;;;18.10;88.70;;;;;;2062605;28;20019;-83
2021/07/06 03:09:53;;;;;;;1.00;0.50;;;18.00;88.70;;;;;;2068122;28;20026;-83
2021/07/06 03:10:53;;;;;;;0.60;0.60;;;18.00;88.70;;;;;;2065799;28;20426;-83
2021/07/06 03:11:54;;;;;;;1.05;0.60;;;18.00;88.70;;;;;;2072586;28;20049;-83
2021/07/06 03:12:55;;;;;;;3.63;0.80;;;18.00;88.70;;;;;;2068515;28;20030;-84
2021/07/06 03:13:56;;;;;;;1.20;0.60;;;18.00;88.80;;;;;;2077135;28;19998;-82
2021/07/06 03:14:56;;;;;;;0.60;0.50;;;18.00;88.80;;;;;;2080808;28;20054;-82
2021/07/06 03:15:57;;;;;;;1.60;0.68;;;18.00;88.70;;;;;;2081129;28;20113;-82
2021/07/06 03:16:58;;;;;;;0.77;0.60;;;18.00;88.70;;;;;;2065875;28;20031;-82
2021/07/06 03:18:00;;;;;;;1.40;0.60;;;18.00;88.80;;;;;;2070014;28;20023;-83
2021/07/06 03:19:00;;;;;;;0.68;0.57;;;18.00;88.80;;;;;;2077140;28;20022;-83
2021/07/06 03:20:02;;;;;;;0.93;0.60;;;18.00;88.80;;;;;;2074878;28;20399;-83
2021/07/06 03:21:03;;;;;;;1.40;0.60;;;18.00;88.90;;;;;;2081838;28;20055;-83
2021/07/06 03:22:03;;;;;;;0.70;0.50;;;18.00;88.80;;;;;;2073453;28;20026;-83
2021/07/06 03:23:04;;;;;;;0.75;0.50;;;18.00;88.80;;;;;;2056758;28;20031;-83
2021/07/06 03:24:05;;;;;;;0.77;0.50;;;18.00;88.80;;;;;;2066091;28;20030;-84
2021/07/06 03:25:08;;;;;;;0.50;0.50;;;18.00;88.80;;;;;;2072305;28;20459;-84
2021/07/06 03:26:08;;;;;;;1.27;0.70;;;18.00;88.80;;;;;;2074944;28;20030;-84
2021/07/06 03:27:09;;;;;;;1.38;0.60;;;18.00;88.80;;;;;;2067602;28;20022;-83
2021/07/06 03:28:11;;;;;;;1.05;0.55;;;18.00;88.80;;;;;;2073045;28;20028;-84
2021/07/06 03:29:11;;;;;;;0.88;0.50;;;18.10;88.90;;;;;;2073860;28;20030;-84
2021/07/06 03:30:15;;;;;;;0.90;0.60;;;18.00;88.80;;;;;;2074545;28;20451;-84
2021/07/06 03:31:16;;;;;;;0.90;0.57;;;18.00;88.80;;;;;;2095784;28;20048;-83
2021/07/06 03:32:17;;;;;;;0.75;0.57;;;18.00;88.80;;;;;;2087080;28;20022;-82
2021/07/06 03:33:18;;;;;;;1.13;0.60;;;18.00;88.80;;;;;;2087363;28;20057;-82
2021/07/06 03:34:18;;;;;;;0.52;0.50;;;18.00;88.80;;;;;;2071774;28;20033;-82
2021/07/06 03:35:19;;;;;;;1.00;0.60;;;18.00;88.80;;;;;;2067804;28;20125;-82
2021/07/06 03:36:20;;;;;;;1.58;0.52;;;18.00;88.90;;;;;;2069773;28;20455;-83
2021/07/06 03:37:20;;;;;;;0.95;0.50;;;18.00;88.90;;;;;;2083136;28;20040;-83
2021/07/06 03:38:21;;;;;;;1.38;0.50;;;18.00;88.90;;;;;;2073446;28;20025;-83
2021/07/06 03:39:22;;;;;;;0.98;0.50;;;18.00;89.00;;;;;;2065615;28;20030;-84
2021/07/06 03:40:23;;;;;;;1.33;0.70;;;18.00;89.00;;;;;;2072109;28;20030;-83
2021/07/06 03:41:24;;;;;;;1.20;0.70;;;18.00;89.00;;;;;;2073697;28;20033;-83
2021/07/06 03:42:24;;;;;;;1.02;0.70;;;18.00;89.00;;;;;;2081109;28;20037;-83
2021/07/06 03:43:25;;;;;;;1.75;0.60;;;18.00;89.10;;;;;;2073730;28;20461;-83
2021/07/06 03:44:25;;;;;;;0.60;0.50;;;18.00;89.00;;;;;;2076743;28;20103;-83
2021/07/06 03:45:26;;;;;;;0.85;0.60;;;18.00;89.00;;;;;;2073608;28;20112;-83
2021/07/06 03:46:27;;;;;;;1.85;0.60;;;18.00;89.00;;;;;;2067121;28;20026;-83
2021/07/06 03:47:28;;;;;;;0.90;0.68;;;18.00;89.10;;;;;;2055891;28;20039;-83
2021/07/06 03:48:28;;;;;;;1.10;0.77;;;18.00;89.10;;;;;;2064783;28;20089;-83
2021/07/06 03:49:29;;;;;;;1.15;0.75;;;18.00;89.10;;;;;;2064993;28;20447;-83
2021/07/06 03:50:30;;;;;;;1.08;0.70;;;18.00;89.10;;;;;;2050018;28;20478;-84
2021/07/06 03:51:32;;;;;;;1.90;0.80;;;18.10;89.10;;;;;;2061296;28;20466;-83
2021/07/06 03:52:33;;;;;;;2.00;0.70;;;18.10;89.10;;;;;;2073231;28;20124;-84
2021/07/06 03:53:34;;;;;;;1.27;0.80;;;18.10;89.10;;;;;;2081480;28;20053;-83
2021/07/06 03:54:35;;;;;;;1.30;0.95;;;18.00;89.00;;;;;;2080882;28;20033;-84
2021/07/06 03:55:36;;;;;;;1.42;0.77;;;18.10;89.10;;;;;;2060319;28;20511;-83
2021/07/06 03:56:36;;;;;;;1.10;0.80;;;18.10;89.10;;;;;;2067831;28;20504;-83
2021/07/06 03:57:37;;;;;;;2.28;1.00;;;18.10;89.00;;;;;;2081691;28;20061;-84
2021/07/06 03:58:38;;;;;;;1.83;0.95;;;18.10;89.00;;;;;;2077288;28;20377;-83
2021/07/06 03:59:38;;;;;;;1.20;0.80;;;18.10;89.00;;;;;;2073233;28;20033;-83
2021/07/06 04:00:39;;;;;;;2.03;0.85;;;18.20;89.00;;;;;;2066175;28;20480;-84
2021/07/06 04:01:40;;;;;;;1.30;0.90;;;18.20;88.90;;;;;;2071339;28;20439;-83
2021/07/06 04:02:41;;;;;;;1.10;0.80;;;18.20;88.90;;;;;;2056818;28;20109;-84
2021/07/06 04:03:41;;;;;;;1.25;0.93;;;18.20;88.80;;;;;;2072733;28;20038;-83
2021/07/06 04:04:42;;;;;;;1.90;0.73;;;18.20;88.80;;;;;;2071823;28;20037;-83
2021/07/06 04:05:42;;;;;;;1.35;0.80;;;18.30;88.80;;;;;;2068911;28;20508;-83
2021/07/06 04:06:43;;;;;;;1.88;1.00;;;18.30;88.80;;;;;;2072963;28;20360;-83
2021/07/06 04:07:44;;;;;;;1.73;1.00;;;18.30;88.80;;;;;;2066082;28;20481;-83
2021/07/06 04:08:45;;;;;;;1.63;0.93;;;18.30;88.80;;;;;;2072963;28;20090;-83
2021/07/06 04:09:46;;;;;;;1.30;0.90;;;18.20;88.70;;;;;;2076625;28;20063;-83
2021/07/06 04:10:46;;;;;;;3.10;0.80;;;18.20;88.70;;;;;;2077302;28;20034;-83
2021/07/06 04:11:47;;;;;;;2.40;1.10;;;18.30;88.70;;;;;;2069263;28;20076;-83
2021/07/06 04:12:49;;;;;;;1.13;0.85;;;18.30;88.80;;;;;;2072783;28;20114;-83
2021/07/06 04:13:50;;;;;;;0.82;0.68;;;18.30;88.70;;;;;;2076047;28;20034;-83
2021/07/06 04:14:51;;;;;;;0.65;0.63;;;18.30;88.60;;;;;;2064435;28;20137;-84
2021/07/06 04:15:52;;;;;;;0.77;0.68;;;18.30;88.60;;;;;;2066133;28;20420;-82
2021/07/06 04:16:52;;;;;;;1.05;0.55;;;18.30;88.60;;;;;;2066524;28;20053;-84
2021/07/06 04:17:53;;;;;;;1.20;0.80;;;18.30;88.50;;;;;;2059980;28;20064;-83
2021/07/06 04:18:53;;;;;;;1.23;0.68;;;18.30;88.50;;;;;;2068809;28;20567;-83
2021/07/06 04:19:56;;;;;;;1.02;0.70;;;18.30;88.40;;;;;;2066684;28;20063;-84
2021/07/06 04:20:57;;;;;;;1.90;0.80;;;18.40;88.40;;;;;;2062872;28;20121;-84
2021/07/06 04:21:58;;;;;;;2.53;0.70;;;18.40;88.40;;;;;;2066127;28;20030;-83
2021/07/06 04:22:59;;;;;;;1.40;0.80;;;18.40;88.40;;;;;;2076004;28;20033;-83
2021/07/06 04:23:59;;;;;;;1.65;0.70;;;18.40;88.30;;;;;;2074096;28;20029;-83
2021/07/06 04:25:00;;;;;;;1.33;0.70;;;18.50;88.30;;;;;;2058144;28;20055;-85
2021/07/06 04:26:02;;;;;;;0.85;0.60;;;18.50;88.20;;;;;;2058904;28;20022;-84
2021/07/06 04:27:03;;;;;;;1.33;0.70;;;18.50;88.10;;;;;;2073234;28;20137;-84
2021/07/06 04:28:04;;;;;;;1.08;0.70;;;18.50;88.10;;;;;;2075841;28;20029;-84
2021/07/06 04:29:05;;;;;;;1.83;0.60;;;18.50;88.00;;;;;;2083375;28;20024;-85
2021/07/06 04:30:08;;;;;;;1.65;0.70;;;18.50;88.00;;;;;;2083045;28;20601;-84
2021/07/06 04:31:08;;;;;;;0.90;0.50;;;18.50;88.00;;;;;;2078494;28;20022;-83
2021/07/06 04:32:09;;;;;;;2.45;0.80;;;18.50;88.00;;;;;;2083307;28;20060;-84
2021/07/06 04:33:10;;;;;;;2.53;0.60;;;18.60;88.10;;;;;;2074682;28;20018;-84
2021/07/06 04:34:10;;;;;;;1.23;0.82;;;18.50;88.00;;;;;;2065864;28;20108;-85
2021/07/06 04:35:11;;;;;;;2.53;0.80;;;18.60;88.60;;;;;;2073706;28;20037;-83
2021/07/06 04:36:12;;;;;;;1.08;0.70;;;18.50;87.90;;;;;;2083117;28;20487;-84
2021/07/06 04:37:13;;;;;;;1.05;0.60;;;18.60;87.90;;;;;;2083093;28;20033;-84
2021/07/06 04:38:14;;;;;;;2.05;0.60;;;18.60;87.90;;;;;;2068234;28;20481;-84
2021/07/06 04:39:14;;;;;;;0.60;0.50;;;18.60;87.80;;;;;;2058920;28;20031;-84
2021/07/06 04:40:16;;;;;;;4.43;0.80;;;18.60;87.80;;;;;;2074244;28;20022;-83
2021/07/06 04:41:17;;;;;;;1.60;0.70;;;18.60;87.80;;;;;;2082498;28;20029;-83
2021/07/06 04:42:17;;;;;;;1.48;0.70;;;18.60;87.80;;;;;;2076202;28;20041;-83
2021/07/06 04:43:18;;;;;;;1.52;0.60;;;18.60;87.80;;;;;;2053687;28;20532;-83
2021/07/06 04:44:19;;;;;;;1.45;0.55;;;18.60;87.80;;;;;;2060356;28;20501;-83
2021/07/06 04:45:19;;;;;;;1.17;0.77;;;18.60;87.80;;;;;;2074743;28;20048;-83
2021/07/06 04:46:20;;;;;;;0.90;0.50;;;18.60;87.90;;;;;;2075281;28;20050;-83
2021/07/06 04:47:21;;;;;;;2.03;0.77;;;18.60;87.90;;;;;;2070184;28;20022;-83
2021/07/06 04:48:22;;;;;;;1.77;0.80;;;18.50;88.50;;;;;;2073823;28;20049;-83
2021/07/06 04:49:22;;;;;;;1.45;0.63;;;18.50;88.00;;;;;;2069341;28;20638;-84
2021/07/06 04:50:23;;;;;;;1.48;0.70;;;18.50;88.00;;;;;;2075390;28;20061;-84
2021/07/06 04:51:24;;;;;;;0.98;0.60;;;18.50;88.10;;;;;;2081123;28;20450;-84
2021/07/06 04:52:24;;;;;;;1.55;0.70;;;18.50;88.20;;;;;;2066464;28;20054;-84
2021/07/06 04:53:25;;;;;;;1.42;0.60;;;18.50;88.20;;;;;;2066051;28;20125;-84
2021/07/06 04:54:26;;;;;;;1.02;0.50;;;18.50;88.20;;;;;;2065716;28;20041;-83
2021/07/06 04:55:27;;;;;;;3.10;0.70;;;18.60;88.20;;;;;;2066933;28;20062;-84
2021/07/06 04:56:28;;;;;;;1.45;0.57;;;18.50;88.20;;;;;;2082018;28;20033;-83
2021/07/06 04:57:29;;;;;;;1.00;0.68;;;18.60;88.20;;;;;;2074114;28;20022;-82
2021/07/06 04:58:30;;;;;;;1.75;0.50;;;18.60;88.20;;;;;;2067664;28;20027;-84
2021/07/06 04:59:30;;;;;;;0.77;0.60;;;18.60;88.10;;;;;;2083191;28;20096;-83
2021/07/06 05:00:31;;;;;;;1.90;0.60;;;18.60;88.10;;;;;;2075699;28;20053;-84
2021/07/06 05:01:33;;;;;;;1.48;0.63;;;18.60;88.20;;;;;;2069203;28;20022;-83
2021/07/06 05:02:34;;;;;;;1.65;0.70;;;18.60;88.20;;;;;;2074210;28;20431;-84
2021/07/06 05:03:35;;;;;;;1.77;0.75;;;18.60;88.20;;;;;;2072872;28;20041;-84
2021/07/06 05:04:36;;;;;;;0.77;0.63;;;18.60;88.20;;;;;;2071003;28;20037;-84
2021/07/06 05:05:39;;;;;;;2.90;0.60;;;18.60;88.20;;;;;;2073606;28;20431;-84
2021/07/06 05:06:41;;;;;;;0.95;0.55;;;18.60;88.20;;;;;;2066197;28;20042;-84
2021/07/06 05:07:42;;;;;;;1.45;0.60;;;18.60;88.20;;;;;;2072822;28;20165;-84
2021/07/06 05:08:42;;;;;;;1.98;0.80;;;18.60;88.20;;;;;;2074234;28;20021;-84
2021/07/06 05:09:43;;;;;;;1.80;0.70;;;18.60;88.20;;;;;;2075829;28;20448;-84
2021/07/06 05:10:46;;;;;;;0.77;0.50;;;18.60;88.20;;;;;;2072347;28;20052;-83
2021/07/06 05:11:46;;;;;;;1.50;0.80;;;18.60;88.20;;;;;;2073338;28;20112;-83
2021/07/06 05:12:47;;;;;;;4.35;0.70;;;18.70;88.20;;;;;;2077065;28;20056;-84
2021/07/06 05:13:47;;;;;;;1.98;0.63;;;18.60;88.20;;;;;;2076929;28;20026;-84
2021/07/06 05:14:48;;;;;;;0.68;0.50;;;18.70;88.10;;;;;;2065752;28;20078;-84
2021/07/06 05:15:49;;;;;;;0.95;0.52;;;18.70;88.10;;;;;;2065718;28;20046;-83
2021/07/06 05:16:49;;;;;;;1.55;0.63;;;18.70;88.00;;;;;;2073075;28;20029;-84
2021/07/06 05:17:50;;;;;;;1.55;0.60;;;18.70;87.90;;;;;;2058359;28;20097;-84
2021/07/06 05:18:51;;;;;;;0.95;0.60;;;18.80;87.80;;;;;;2062908;28;20100;-84
2021/07/06 05:19:51;;;;;;;1.45;0.68;;;18.80;87.70;;;;;;2074374;28;20369;-84